sensor_id;sensor_type;location;lat;lon;timestamp;pressure;altitude;pressure_sealevel;temperature;humidity
64402;BME280;50724;42.376;23.768;2023-04-30T00:02:10;92852.78;;;7.56;91.30
64402;BME280;50724;42.376;23.768;2023-04-30T00:05:11;92857.63;;;7.51;90.88
64402;BME280;50724;42.376;23.768;2023-04-30T00:08:11;92855.75;;;7.61;90.13
64402;BME280;50724;42.376;23.768;2023-04-30T00:11:11;92857.19;;;7.55;90.06
64402;BME280;50724;42.376;23.768;2023-04-30T00:14:12;92851.28;;;7.45;90.21
64402;BME280;50724;42.376;23.768;2023-04-30T00:17:12;92851.97;;;7.55;90.33
64402;BME280;50724;42.376;23.768;2023-04-30T00:20:13;92849.47;;;7.46;89.94
64402;BME280;50724;42.376;23.768;2023-04-30T00:23:13;92848.91;;;7.34;90.00
64402;BME280;50724;42.376;23.768;2023-04-30T00:26:13;92851.94;;;7.22;90.37
64402;BME280;50724;42.376;23.768;2023-04-30T00:29:14;92848.25;;;7.07;90.38
64402;BME280;50724;42.376;23.768;2023-04-30T00:32:15;92852.41;;;7.17;90.17
64402;BME280;50724;42.376;23.768;2023-04-30T00:35:15;92848.50;;;6.96;90.24
64402;BME280;50724;42.376;23.768;2023-04-30T00:38:16;92853.28;;;7.08;90.71
64402;BME280;50724;42.376;23.768;2023-04-30T00:41:17;92850.47;;;7.02;91.28
64402;BME280;50724;42.376;23.768;2023-04-30T00:44:20;92848.34;;;6.97;91.78
64402;BME280;50724;42.376;23.768;2023-04-30T00:47:21;92849.97;;;6.98;91.89
64402;BME280;50724;42.376;23.768;2023-04-30T00:50:22;92850.88;;;6.89;92.53
64402;BME280;50724;42.376;23.768;2023-04-30T00:53:23;92844.22;;;6.86;92.83
64402;BME280;50724;42.376;23.768;2023-04-30T00:56:23;92844.91;;;6.97;92.33
64402;BME280;50724;42.376;23.768;2023-04-30T00:59:24;92835.28;;;6.89;92.13
64402;BME280;50724;42.376;23.768;2023-04-30T01:02:26;92843.88;;;6.89;92.57
64402;BME280;50724;42.376;23.768;2023-04-30T01:05:26;92836.69;;;6.83;92.88
64402;BME280;50724;42.376;23.768;2023-04-30T01:08:27;92836.63;;;6.93;92.75
64402;BME280;50724;42.376;23.768;2023-04-30T01:15:00;92836.81;;;7.00;91.76
64402;BME280;50724;42.376;23.768;2023-04-30T01:18:09;92839.88;;;6.95;92.02
64402;BME280;50724;42.376;23.768;2023-04-30T01:21:13;92845.25;;;6.93;91.86
64402;BME280;50724;42.376;23.768;2023-04-30T01:31:19;92832.34;;;7.10;90.94
64402;BME280;50724;42.376;23.768;2023-04-30T01:34:19;92834.34;;;7.16;89.43
64402;BME280;50724;42.376;23.768;2023-04-30T01:37:42;92831.16;;;7.30;88.80
64402;BME280;50724;42.376;23.768;2023-04-30T01:40:52;92833.75;;;7.22;87.65
64402;BME280;50724;42.376;23.768;2023-04-30T01:53:32;92829.56;;;7.03;88.58
64402;BME280;50724;42.376;23.768;2023-04-30T01:56:39;92823.25;;;6.88;89.86
64402;BME280;50724;42.376;23.768;2023-04-30T01:59:41;92821.75;;;6.85;88.59
64402;BME280;50724;42.376;23.768;2023-04-30T02:02:42;92818.78;;;6.80;89.55
64402;BME280;50724;42.376;23.768;2023-04-30T02:05:43;92816.19;;;6.80;89.27
64402;BME280;50724;42.376;23.768;2023-04-30T02:08:44;92819.16;;;6.85;88.51
64402;BME280;50724;42.376;23.768;2023-04-30T02:11:44;92823.63;;;6.93;87.98
64402;BME280;50724;42.376;23.768;2023-04-30T02:14:53;92824.84;;;7.07;86.70
64402;BME280;50724;42.376;23.768;2023-04-30T02:17:53;92822.50;;;6.96;86.85
64402;BME280;50724;42.376;23.768;2023-04-30T02:20:54;92820.28;;;7.01;86.00
64402;BME280;50724;42.376;23.768;2023-04-30T02:23:54;92828.72;;;7.03;86.49
64402;BME280;50724;42.376;23.768;2023-04-30T02:26:55;92818.81;;;7.06;85.50
64402;BME280;50724;42.376;23.768;2023-04-30T02:29:55;92820.56;;;6.98;86.27
64402;BME280;50724;42.376;23.768;2023-04-30T02:32:56;92820.19;;;6.92;86.85
64402;BME280;50724;42.376;23.768;2023-04-30T02:35:58;92827.50;;;6.89;87.04
64402;BME280;50724;42.376;23.768;2023-04-30T02:39:07;92821.03;;;6.93;87.05
64402;BME280;50724;42.376;23.768;2023-04-30T02:42:08;92824.72;;;6.90;87.34
64402;BME280;50724;42.376;23.768;2023-04-30T02:45:08;92824.91;;;6.89;86.70
64402;BME280;50724;42.376;23.768;2023-04-30T02:48:09;92827.13;;;6.84;87.04
64402;BME280;50724;42.376;23.768;2023-04-30T02:51:09;92822.88;;;6.83;87.37
64402;BME280;50724;42.376;23.768;2023-04-30T02:54:10;92825.16;;;6.60;88.54
64402;BME280;50724;42.376;23.768;2023-04-30T02:57:10;92832.13;;;6.60;89.10
64402;BME280;50724;42.376;23.768;2023-04-30T03:00:11;92831.81;;;6.63;88.50
64402;BME280;50724;42.376;23.768;2023-04-30T03:03:21;92835.25;;;6.63;89.51
64402;BME280;50724;42.376;23.768;2023-04-30T03:06:22;92829.81;;;6.57;89.92
64402;BME280;50724;42.376;23.768;2023-04-30T03:09:22;92838.13;;;6.60;90.57
64402;BME280;50724;42.376;23.768;2023-04-30T03:12:22;92835.97;;;6.56;90.28
64402;BME280;50724;42.376;23.768;2023-04-30T03:15:23;92837.91;;;6.54;90.34
64402;BME280;50724;42.376;23.768;2023-04-30T03:18:23;92836.19;;;6.62;89.58
64402;BME280;50724;42.376;23.768;2023-04-30T03:21:24;92840.25;;;6.82;89.14
64402;BME280;50724;42.376;23.768;2023-04-30T03:24:24;92844.63;;;7.00;88.30
64402;BME280;50724;42.376;23.768;2023-04-30T03:27:25;92843.22;;;6.87;88.89
64402;BME280;50724;42.376;23.768;2023-04-30T03:30:25;92839.16;;;6.67;89.35
64402;BME280;50724;42.376;23.768;2023-04-30T03:33:25;92836.94;;;6.55;90.84
64402;BME280;50724;42.376;23.768;2023-04-30T03:36:34;92845.31;;;6.66;91.00
64402;BME280;50724;42.376;23.768;2023-04-30T03:39:43;92848.81;;;6.75;90.91
64402;BME280;50724;42.376;23.768;2023-04-30T03:42:44;92857.78;;;6.98;89.49
64402;BME280;50724;42.376;23.768;2023-04-30T03:45:44;92861.34;;;6.97;89.68
64402;BME280;50724;42.376;23.768;2023-04-30T03:48:45;92871.16;;;7.03;90.17
64402;BME280;50724;42.376;23.768;2023-04-30T03:51:45;92869.31;;;7.21;89.22
64402;BME280;50724;42.376;23.768;2023-04-30T03:54:46;92867.94;;;7.35;88.47
64402;BME280;50724;42.376;23.768;2023-04-30T03:57:46;92869.69;;;7.52;87.87
64402;BME280;50724;42.376;23.768;2023-04-30T04:00:47;92883.28;;;7.72;87.08
64402;BME280;50724;42.376;23.768;2023-04-30T04:03:47;92890.53;;;7.86;85.62
64402;BME280;50724;42.376;23.768;2023-04-30T04:06:48;92886.19;;;7.94;88.23
64402;BME280;50724;42.376;23.768;2023-04-30T04:09:48;92879.38;;;8.01;86.91
64402;BME280;50724;42.376;23.768;2023-04-30T04:12:49;92882.06;;;8.17;87.93
64402;BME280;50724;42.376;23.768;2023-04-30T04:15:50;92886.53;;;8.33;85.53
64402;BME280;50724;42.376;23.768;2023-04-30T04:18:50;92883.63;;;8.36;85.46
64402;BME280;50724;42.376;23.768;2023-04-30T04:21:51;92882.22;;;8.58;84.99
64402;BME280;50724;42.376;23.768;2023-04-30T04:24:51;92888.09;;;8.76;83.35
64402;BME280;50724;42.376;23.768;2023-04-30T04:27:52;92890.41;;;8.95;85.61
64402;BME280;50724;42.376;23.768;2023-04-30T04:30:52;92886.19;;;9.18;82.36
64402;BME280;50724;42.376;23.768;2023-04-30T04:33:53;92891.25;;;9.44;80.59
64402;BME280;50724;42.376;23.768;2023-04-30T04:36:57;92900.03;;;9.51;80.93
64402;BME280;50724;42.376;23.768;2023-04-30T04:39:58;92897.72;;;9.64;80.61
64402;BME280;50724;42.376;23.768;2023-04-30T04:42:58;92903.31;;;9.61;81.06
64402;BME280;50724;42.376;23.768;2023-04-30T04:45:59;92901.66;;;9.68;80.53
64402;BME280;50724;42.376;23.768;2023-04-30T04:48:59;92905.38;;;9.74;80.61
64402;BME280;50724;42.376;23.768;2023-04-30T04:52:00;92905.84;;;9.93;79.74
64402;BME280;50724;42.376;23.768;2023-04-30T04:55:01;92906.97;;;9.99;81.24
64402;BME280;50724;42.376;23.768;2023-04-30T04:58:01;92906.63;;;10.18;80.33
64402;BME280;50724;42.376;23.768;2023-04-30T05:01:02;92910.81;;;10.35;79.37
64402;BME280;50724;42.376;23.768;2023-04-30T05:04:04;92907.41;;;10.26;80.05
64402;BME280;50724;42.376;23.768;2023-04-30T05:07:05;92912.78;;;10.25;79.62
64402;BME280;50724;42.376;23.768;2023-04-30T05:10:07;92911.50;;;10.29;79.47
64402;BME280;50724;42.376;23.768;2023-04-30T05:13:08;92907.94;;;10.22;80.43
64402;BME280;50724;42.376;23.768;2023-04-30T05:16:08;92911.44;;;10.37;80.14
64402;BME280;50724;42.376;23.768;2023-04-30T05:19:09;92913.03;;;10.46;78.87
64402;BME280;50724;42.376;23.768;2023-04-30T05:22:10;92916.34;;;10.40;78.23
64402;BME280;50724;42.376;23.768;2023-04-30T05:25:10;92918.75;;;10.50;76.82
64402;BME280;50724;42.376;23.768;2023-04-30T05:28:11;92910.56;;;10.53;76.90
64402;BME280;50724;42.376;23.768;2023-04-30T05:31:11;92918.97;;;10.32;76.25
64402;BME280;50724;42.376;23.768;2023-04-30T05:34:12;92919.91;;;10.47;77.19
64402;BME280;50724;42.376;23.768;2023-04-30T05:37:12;92916.09;;;10.58;76.81
64402;BME280;50724;42.376;23.768;2023-04-30T05:40:14;92924.59;;;10.60;77.84
64402;BME280;50724;42.376;23.768;2023-04-30T05:43:17;92928.63;;;10.70;77.84
64402;BME280;50724;42.376;23.768;2023-04-30T05:46:17;92925.53;;;10.97;76.93
64402;BME280;50724;42.376;23.768;2023-04-30T05:49:18;92927.19;;;11.21;75.99
64402;BME280;50724;42.376;23.768;2023-04-30T05:52:19;92931.84;;;11.56;75.36
64402;BME280;50724;42.376;23.768;2023-04-30T05:55:28;92927.25;;;11.96;73.47
64402;BME280;50724;42.376;23.768;2023-04-30T05:58:28;92926.75;;;12.44;70.64
64402;BME280;50724;42.376;23.768;2023-04-30T06:01:28;92922.56;;;12.64;71.33
64402;BME280;50724;42.376;23.768;2023-04-30T06:04:29;92927.53;;;12.88;69.99
64402;BME280;50724;42.376;23.768;2023-04-30T06:07:30;92918.25;;;13.22;67.47
64402;BME280;50724;42.376;23.768;2023-04-30T06:10:31;92923.06;;;13.39;67.58
64402;BME280;50724;42.376;23.768;2023-04-30T06:13:31;92929.97;;;13.61;66.51
64402;BME280;50724;42.376;23.768;2023-04-30T06:16:32;92928.81;;;13.70;66.64
64402;BME280;50724;42.376;23.768;2023-04-30T06:19:32;92933.69;;;13.95;66.29
64402;BME280;50724;42.376;23.768;2023-04-30T06:22:33;92926.16;;;14.40;64.63
64402;BME280;50724;42.376;23.768;2023-04-30T06:25:33;92934.06;;;14.47;62.74
64402;BME280;50724;42.376;23.768;2023-04-30T06:28:34;92926.28;;;14.60;62.53
64402;BME280;50724;42.376;23.768;2023-04-30T06:31:34;92924.31;;;14.82;61.43
64402;BME280;50724;42.376;23.768;2023-04-30T06:34:34;92928.63;;;14.89;61.23
64402;BME280;50724;42.376;23.768;2023-04-30T06:37:36;92926.84;;;14.56;62.65
64402;BME280;50724;42.376;23.768;2023-04-30T06:40:36;92930.06;;;14.51;63.06
64402;BME280;50724;42.376;23.768;2023-04-30T06:43:37;92929.28;;;14.57;61.99
64402;BME280;50724;42.376;23.768;2023-04-30T06:46:37;92931.75;;;14.65;59.28
64402;BME280;50724;42.376;23.768;2023-04-30T06:49:38;92931.47;;;13.98;56.54
64402;BME280;50724;42.376;23.768;2023-04-30T06:52:38;92937.25;;;13.87;58.22
64402;BME280;50724;42.376;23.768;2023-04-30T06:55:43;92937.13;;;14.23;57.84
64402;BME280;50724;42.376;23.768;2023-04-30T06:58:44;92935.13;;;13.97;55.94
64402;BME280;50724;42.376;23.768;2023-04-30T07:01:49;92933.91;;;14.00;54.17
64402;BME280;50724;42.376;23.768;2023-04-30T07:04:49;92932.63;;;14.17;56.47
64402;BME280;50724;42.376;23.768;2023-04-30T07:07:50;92937.16;;;14.51;54.28
64402;BME280;50724;42.376;23.768;2023-04-30T07:10:50;92932.22;;;14.41;53.03
64402;BME280;50724;42.376;23.768;2023-04-30T07:13:51;92933.50;;;14.52;55.66
64402;BME280;50724;42.376;23.768;2023-04-30T07:16:52;92931.81;;;15.19;53.48
64402;BME280;50724;42.376;23.768;2023-04-30T07:19:53;92931.94;;;15.04;51.30
64402;BME280;50724;42.376;23.768;2023-04-30T07:22:53;92935.81;;;15.15;52.82
64402;BME280;50724;42.376;23.768;2023-04-30T07:25:54;92936.16;;;14.99;52.66
64402;BME280;50724;42.376;23.768;2023-04-30T07:28:55;92935.53;;;14.90;52.56
64402;BME280;50724;42.376;23.768;2023-04-30T07:31:55;92935.16;;;15.00;50.84
64402;BME280;50724;42.376;23.768;2023-04-30T07:34:56;92942.59;;;14.83;51.95
64402;BME280;50724;42.376;23.768;2023-04-30T07:37:56;92942.03;;;14.94;51.98
64402;BME280;50724;42.376;23.768;2023-04-30T07:40:57;92935.47;;;15.31;50.18
64402;BME280;50724;42.376;23.768;2023-04-30T07:43:57;92932.31;;;15.62;51.31
64402;BME280;50724;42.376;23.768;2023-04-30T07:46:58;92938.47;;;16.15;50.69
64402;BME280;50724;42.376;23.768;2023-04-30T07:49:59;92944.94;;;16.25;47.42
64402;BME280;50724;42.376;23.768;2023-04-30T07:53:00;92953.84;;;16.50;48.26
64402;BME280;50724;42.376;23.768;2023-04-30T07:56:00;92948.63;;;15.92;47.18
64402;BME280;50724;42.376;23.768;2023-04-30T07:59:01;92948.44;;;15.26;48.06
64402;BME280;50724;42.376;23.768;2023-04-30T08:02:01;92953.50;;;15.28;47.25
64402;BME280;50724;42.376;23.768;2023-04-30T08:05:03;92949.56;;;15.51;46.96
64402;BME280;50724;42.376;23.768;2023-04-30T08:08:03;92948.19;;;15.75;47.16
64402;BME280;50724;42.376;23.768;2023-04-30T08:11:04;92962.53;;;15.53;46.98
64402;BME280;50724;42.376;23.768;2023-04-30T08:14:04;92949.56;;;15.64;47.29
64402;BME280;50724;42.376;23.768;2023-04-30T08:17:06;92946.72;;;15.53;47.14
64402;BME280;50724;42.376;23.768;2023-04-30T08:20:06;92951.38;;;15.57;48.40
64402;BME280;50724;42.376;23.768;2023-04-30T08:23:07;92957.13;;;16.00;48.47
64402;BME280;50724;42.376;23.768;2023-04-30T08:26:07;92951.25;;;15.92;46.81
64402;BME280;50724;42.376;23.768;2023-04-30T08:29:08;92949.81;;;15.96;46.43
64402;BME280;50724;42.376;23.768;2023-04-30T08:32:08;92950.03;;;16.60;46.21
64402;BME280;50724;42.376;23.768;2023-04-30T08:35:09;92946.72;;;16.84;44.14
64402;BME280;50724;42.376;23.768;2023-04-30T08:38:10;92945.13;;;16.43;46.89
64402;BME280;50724;42.376;23.768;2023-04-30T08:41:12;92941.31;;;15.87;46.62
64402;BME280;50724;42.376;23.768;2023-04-30T08:44:13;92940.09;;;15.96;45.97
64402;BME280;50724;42.376;23.768;2023-04-30T08:47:14;92942.53;;;15.91;45.71
64402;BME280;50724;42.376;23.768;2023-04-30T08:50:16;92929.91;;;15.67;47.15
64402;BME280;50724;42.376;23.768;2023-04-30T08:53:16;92930.72;;;15.61;47.15
64402;BME280;50724;42.376;23.768;2023-04-30T08:56:20;92937.34;;;15.44;48.04
64402;BME280;50724;42.376;23.768;2023-04-30T08:59:30;92943.75;;;16.08;46.41
64402;BME280;50724;42.376;23.768;2023-04-30T09:02:32;92953.28;;;16.22;46.31
64402;BME280;50724;42.376;23.768;2023-04-30T09:05:32;92948.22;;;16.08;45.96
64402;BME280;50724;42.376;23.768;2023-04-30T09:08:44;92942.13;;;16.14;46.68
64402;BME280;50724;42.376;23.768;2023-04-30T09:11:46;92940.50;;;16.00;46.89
64402;BME280;50724;42.376;23.768;2023-04-30T09:15:00;92941.88;;;15.69;48.51
64402;BME280;50724;42.376;23.768;2023-04-30T09:18:13;92944.72;;;15.81;47.32
64402;BME280;50724;42.376;23.768;2023-04-30T09:21:16;92932.97;;;16.42;47.41
64402;BME280;50724;42.376;23.768;2023-04-30T09:24:44;92937.44;;;16.22;44.79
64402;BME280;50724;42.376;23.768;2023-04-30T09:27:45;92932.97;;;16.36;45.89
64402;BME280;50724;42.376;23.768;2023-04-30T09:30:49;92931.16;;;16.56;44.34
64402;BME280;50724;42.376;23.768;2023-04-30T09:33:50;92927.28;;;16.45;42.30
64402;BME280;50724;42.376;23.768;2023-04-30T09:36:54;92935.59;;;16.49;43.76
64402;BME280;50724;42.376;23.768;2023-04-30T09:39:55;92934.59;;;16.30;44.16
64402;BME280;50724;42.376;23.768;2023-04-30T09:42:59;92931.75;;;16.19;44.74
64402;BME280;50724;42.376;23.768;2023-04-30T09:45:59;92916.94;;;16.31;44.17
64402;BME280;50724;42.376;23.768;2023-04-30T09:49:02;92933.56;;;16.25;45.39
64402;BME280;50724;42.376;23.768;2023-04-30T09:52:03;92924.84;;;15.05;49.88
64402;BME280;50724;42.376;23.768;2023-04-30T09:55:04;92939.91;;;14.15;56.57
64402;BME280;50724;42.376;23.768;2023-04-30T09:58:05;92935.22;;;13.61;58.49
64402;BME280;50724;42.376;23.768;2023-04-30T10:01:09;92935.88;;;13.70;60.32
64402;BME280;50724;42.376;23.768;2023-04-30T10:04:13;92928.06;;;13.76;60.01
64402;BME280;50724;42.376;23.768;2023-04-30T10:07:16;92933.81;;;13.87;58.53
64402;BME280;50724;42.376;23.768;2023-04-30T10:10:18;92929.75;;;14.12;57.16
64402;BME280;50724;42.376;23.768;2023-04-30T10:13:20;92932.56;;;14.66;56.78
64402;BME280;50724;42.376;23.768;2023-04-30T10:19:33;92927.31;;;15.20;53.25
64402;BME280;50724;42.376;23.768;2023-04-30T10:22:34;92917.81;;;15.19;54.00
64402;BME280;50724;42.376;23.768;2023-04-30T10:25:37;92927.84;;;15.49;52.36
64402;BME280;50724;42.376;23.768;2023-04-30T10:28:38;92929.72;;;15.75;52.66
64402;BME280;50724;42.376;23.768;2023-04-30T10:31:49;92928.31;;;16.12;53.73
64402;BME280;50724;42.376;23.768;2023-04-30T10:35:10;92924.84;;;16.31;50.98
64402;BME280;50724;42.376;23.768;2023-04-30T10:38:23;92912.06;;;16.34;50.16
64402;BME280;50724;42.376;23.768;2023-04-30T10:41:25;92906.69;;;16.87;49.43
64402;BME280;50724;42.376;23.768;2023-04-30T10:44:33;92893.72;;;16.72;50.33
64402;BME280;50724;42.376;23.768;2023-04-30T10:47:41;92894.94;;;17.27;50.06
64402;BME280;50724;42.376;23.768;2023-04-30T10:50:43;92892.06;;;18.22;47.94
64402;BME280;50724;42.376;23.768;2023-04-30T10:53:49;92883.41;;;18.94;45.46
64402;BME280;50724;42.376;23.768;2023-04-30T10:56:51;92874.03;;;18.13;45.79
64402;BME280;50724;42.376;23.768;2023-04-30T11:03:13;92870.44;;;19.22;44.18
64402;BME280;50724;42.376;23.768;2023-04-30T11:06:15;92868.25;;;17.35;44.01
64402;BME280;50724;42.376;23.768;2023-04-30T11:09:33;92874.84;;;16.75;46.67
64402;BME280;50724;42.376;23.768;2023-04-30T11:12:39;92882.22;;;16.34;47.34
64402;BME280;50724;42.376;23.768;2023-04-30T11:15:41;92883.28;;;16.00;48.69
64402;BME280;50724;42.376;23.768;2023-04-30T11:18:44;92895.75;;;15.39;51.08
64402;BME280;50724;42.376;23.768;2023-04-30T11:25:06;92917.47;;;14.87;54.53
64402;BME280;50724;42.376;23.768;2023-04-30T11:28:20;92925.66;;;14.58;57.70
64402;BME280;50724;42.376;23.768;2023-04-30T11:31:21;92921.28;;;14.16;64.11
64402;BME280;50724;42.376;23.768;2023-04-30T11:34:30;92921.44;;;14.08;67.01
64402;BME280;50724;42.376;23.768;2023-04-30T11:37:35;92916.84;;;14.17;70.73
64402;BME280;50724;42.376;23.768;2023-04-30T11:40:37;92925.00;;;14.56;71.79
64402;BME280;50724;42.376;23.768;2023-04-30T11:43:38;92926.19;;;14.47;70.54
64402;BME280;50724;42.376;23.768;2023-04-30T11:46:46;92924.50;;;14.39;68.72
64402;BME280;50724;42.376;23.768;2023-04-30T11:49:49;92928.28;;;14.03;70.60
64402;BME280;50724;42.376;23.768;2023-04-30T11:52:59;92934.00;;;13.85;66.72
64402;BME280;50724;42.376;23.768;2023-04-30T11:56:04;92941.91;;;13.64;67.06
64402;BME280;50724;42.376;23.768;2023-04-30T11:59:09;92947.63;;;13.32;63.70
64402;BME280;50724;42.376;23.768;2023-04-30T12:02:14;92974.41;;;13.06;66.60
64402;BME280;50724;42.376;23.768;2023-04-30T12:05:23;92996.94;;;12.57;73.44
64402;BME280;50724;42.376;23.768;2023-04-30T12:08:24;92989.22;;;11.89;81.49
64402;BME280;50724;42.376;23.768;2023-04-30T12:11:26;92998.53;;;12.14;84.46
64402;BME280;50724;42.376;23.768;2023-04-30T12:14:27;92993.56;;;12.33;85.90
64402;BME280;50724;42.376;23.768;2023-04-30T12:17:33;92993.81;;;12.09;88.46
64402;BME280;50724;42.376;23.768;2023-04-30T12:20:34;92999.59;;;11.82;86.22
64402;BME280;50724;42.376;23.768;2023-04-30T12:23:35;92997.53;;;11.78;86.54
64402;BME280;50724;42.376;23.768;2023-04-30T12:26:37;92991.78;;;11.97;84.31
64402;BME280;50724;42.376;23.768;2023-04-30T12:29:42;92998.28;;;12.23;83.58
64402;BME280;50724;42.376;23.768;2023-04-30T12:32:47;92993.16;;;12.88;81.42
64402;BME280;50724;42.376;23.768;2023-04-30T12:35:51;92986.59;;;12.99;79.50
64402;BME280;50724;42.376;23.768;2023-04-30T12:39:01;92987.16;;;13.59;76.76
64402;BME280;50724;42.376;23.768;2023-04-30T12:42:02;92982.66;;;14.23;75.92
64402;BME280;50724;42.376;23.768;2023-04-30T12:45:03;92984.28;;;14.45;72.40
64402;BME280;50724;42.376;23.768;2023-04-30T12:48:04;92981.22;;;14.76;69.06
64402;BME280;50724;42.376;23.768;2023-04-30T12:51:04;92981.22;;;14.76;65.22
64402;BME280;50724;42.376;23.768;2023-04-30T12:54:09;92967.41;;;15.56;62.49
64402;BME280;50724;42.376;23.768;2023-04-30T12:57:11;92964.22;;;16.39;61.78
64402;BME280;50724;42.376;23.768;2023-04-30T13:00:12;92961.63;;;16.13;58.45
64402;BME280;50724;42.376;23.768;2023-04-30T13:03:13;92956.50;;;16.50;57.08
64402;BME280;50724;42.376;23.768;2023-04-30T13:06:14;92946.53;;;16.79;54.66
64402;BME280;50724;42.376;23.768;2023-04-30T13:09:14;92939.75;;;17.02;58.65
64402;BME280;50724;42.376;23.768;2023-04-30T13:12:15;92936.22;;;17.22;59.22
64402;BME280;50724;42.376;23.768;2023-04-30T13:15:15;92934.88;;;17.50;60.55
64402;BME280;50724;42.376;23.768;2023-04-30T13:18:18;92925.25;;;17.69;57.97
64402;BME280;50724;42.376;23.768;2023-04-30T13:21:18;92930.94;;;16.38;58.73
64402;BME280;50724;42.376;23.768;2023-04-30T13:24:19;92929.31;;;16.57;58.01
64402;BME280;50724;42.376;23.768;2023-04-30T13:27:20;92935.22;;;15.93;57.83
64402;BME280;50724;42.376;23.768;2023-04-30T13:30:22;92927.91;;;15.89;59.83
64402;BME280;50724;42.376;23.768;2023-04-30T13:33:22;92930.34;;;15.77;61.10
64402;BME280;50724;42.376;23.768;2023-04-30T13:36:23;92928.91;;;15.68;60.68
64402;BME280;50724;42.376;23.768;2023-04-30T13:39:23;92932.97;;;15.90;59.72
64402;BME280;50724;42.376;23.768;2023-04-30T13:42:27;92940.78;;;15.38;62.00
64402;BME280;50724;42.376;23.768;2023-04-30T13:45:28;92933.13;;;14.61;66.83
64402;BME280;50724;42.376;23.768;2023-04-30T13:48:28;92928.56;;;14.14;68.46
64402;BME280;50724;42.376;23.768;2023-04-30T13:51:28;92908.31;;;14.36;70.41
64402;BME280;50724;42.376;23.768;2023-04-30T13:54:32;92913.81;;;14.41;76.15
64402;BME280;50724;42.376;23.768;2023-04-30T13:57:41;92911.81;;;14.22;72.23
64402;BME280;50724;42.376;23.768;2023-04-30T14:00:42;92915.59;;;14.13;75.11
64402;BME280;50724;42.376;23.768;2023-04-30T14:03:42;92913.56;;;14.08;71.57
64402;BME280;50724;42.376;23.768;2023-04-30T14:06:43;92920.03;;;13.85;70.64
64402;BME280;50724;42.376;23.768;2023-04-30T14:09:44;92917.94;;;13.73;73.19
64402;BME280;50724;42.376;23.768;2023-04-30T14:12:45;92921.13;;;13.69;73.46
64402;BME280;50724;42.376;23.768;2023-04-30T14:15:46;92918.31;;;13.70;70.89
64402;BME280;50724;42.376;23.768;2023-04-30T14:18:47;92922.72;;;13.91;70.95
64402;BME280;50724;42.376;23.768;2023-04-30T14:21:48;92926.34;;;14.11;73.21
64402;BME280;50724;42.376;23.768;2023-04-30T14:24:50;92920.78;;;14.27;73.29
64402;BME280;50724;42.376;23.768;2023-04-30T14:27:50;92921.94;;;14.46;67.28
64402;BME280;50724;42.376;23.768;2023-04-30T14:30:51;92910.84;;;14.98;67.14
64402;BME280;50724;42.376;23.768;2023-04-30T14:33:56;92913.53;;;15.18;65.31
64402;BME280;50724;42.376;23.768;2023-04-30T14:36:57;92908.41;;;15.83;62.99
64402;BME280;50724;42.376;23.768;2023-04-30T14:39:58;92909.81;;;16.51;63.00
64402;BME280;50724;42.376;23.768;2023-04-30T14:43:01;92904.38;;;17.85;57.54
64402;BME280;50724;42.376;23.768;2023-04-30T14:46:01;92902.94;;;17.07;57.86
64402;BME280;50724;42.376;23.768;2023-04-30T14:49:02;92902.00;;;15.25;64.25
64402;BME280;50724;42.376;23.768;2023-04-30T14:52:12;92908.06;;;14.65;65.97
64402;BME280;50724;42.376;23.768;2023-04-30T14:55:12;92907.41;;;14.97;64.53
64402;BME280;50724;42.376;23.768;2023-04-30T14:58:13;92919.78;;;16.62;58.47
64402;BME280;50724;42.376;23.768;2023-04-30T15:01:13;92924.56;;;17.80;53.38
64402;BME280;50724;42.376;23.768;2023-04-30T15:04:14;92916.59;;;18.11;47.94
64402;BME280;50724;42.376;23.768;2023-04-30T15:07:15;92916.84;;;18.10;49.03
64402;BME280;50724;42.376;23.768;2023-04-30T15:10:15;92916.50;;;18.92;49.77
64402;BME280;50724;42.376;23.768;2023-04-30T15:13:16;92915.66;;;19.28;48.44
64402;BME280;50724;42.376;23.768;2023-04-30T15:16:17;92907.41;;;18.38;50.41
64402;BME280;50724;42.376;23.768;2023-04-30T15:19:17;92909.47;;;18.61;49.74
64402;BME280;50724;42.376;23.768;2023-04-30T15:22:18;92913.44;;;20.02;47.16
64402;BME280;50724;42.376;23.768;2023-04-30T15:25:21;92907.94;;;19.74;47.73
64402;BME280;50724;42.376;23.768;2023-04-30T15:28:23;92901.81;;;19.26;48.41
64402;BME280;50724;42.376;23.768;2023-04-30T15:31:23;92905.75;;;18.87;49.08
64402;BME280;50724;42.376;23.768;2023-04-30T15:34:24;92904.78;;;19.65;46.29
64402;BME280;50724;42.376;23.768;2023-04-30T15:37:25;92906.72;;;19.88;47.08
64402;BME280;50724;42.376;23.768;2023-04-30T15:40:26;92899.44;;;20.36;47.16
64402;BME280;50724;42.376;23.768;2023-04-30T15:43:26;92897.41;;;19.01;50.78
64402;BME280;50724;42.376;23.768;2023-04-30T15:46:29;92895.44;;;17.04;56.65
64402;BME280;50724;42.376;23.768;2023-04-30T15:49:29;92897.47;;;15.99;60.32
64402;BME280;50724;42.376;23.768;2023-04-30T15:52:30;92896.41;;;15.54;63.20
64402;BME280;50724;42.376;23.768;2023-04-30T15:55:30;92888.63;;;15.20;64.09
64402;BME280;50724;42.376;23.768;2023-04-30T15:58:31;92881.22;;;15.82;62.99
64402;BME280;50724;42.376;23.768;2023-04-30T16:01:31;92885.09;;;15.54;64.42
64402;BME280;50724;42.376;23.768;2023-04-30T16:04:32;92891.22;;;16.97;59.57
64402;BME280;50724;42.376;23.768;2023-04-30T16:07:32;92890.03;;;18.00;55.94
64402;BME280;50724;42.376;23.768;2023-04-30T16:10:33;92897.75;;;18.50;53.95
64402;BME280;50724;42.376;23.768;2023-04-30T16:13:34;92892.22;;;16.96;56.65
64402;BME280;50724;42.376;23.768;2023-04-30T16:16:34;92889.41;;;16.91;58.29
64402;BME280;50724;42.376;23.768;2023-04-30T16:19:35;92888.69;;;17.15;56.57
64402;BME280;50724;42.376;23.768;2023-04-30T16:22:35;92899.25;;;16.44;57.91
64402;BME280;50724;42.376;23.768;2023-04-30T16:25:36;92896.44;;;16.13;59.22